Terminal Aerodrome Forecast
Issued by NWS

Current Version | Previous Version | Graphics & Text | Print | Product List | Glossary On
Versions: 1 2 3 4 5 6 7 8 9 10 11 12 13 14 15 16 17 18 19 20 21 22 23 24 25
668
FTUS41 KILN 170521
TAFLUK
TAF
KLUK 170521Z 1706/1806 00000KT P6SM FEW250
     FM170800 00000KT 5SM BR FEW250
     FM171300 19003KT P6SM FEW060 SCT250
     FM180000 00000KT P6SM SCT060 BKN250=

USA.gov is the U.S. government's official web portal to all federal, state and local government web resources and services.